Time;durP1;ratioP1;P1;durP2;ratioP2;P2;SDS_P1;SDS_P2;PMS_P1;PMS_P2;Temp;Humidity;BMP_temperature;BMP_pressure;BME280_temperature;BME280_humidity;BME280_pressure;Samples;Min_cycle;Max_cycle;Signal;HPM_P1;HPM_P2
2021/03/12 00:01:20;;;;;;;3.03;1.93;;;;;;;5.44;95.99;97089.72;5008744;28;20207;-72
2021/03/12 00:03:48;;;;;;;3.40;2.10;;;;;;;5.53;95.63;97108.19;5000969;28;20255;-72
2021/03/12 00:06:15;;;;;;;2.83;2.57;;;;;;;5.45;96.06;97117.63;5007236;28;20205;-71
2021/03/12 00:08:44;;;;;;;3.13;2.30;;;;;;;5.38;98.67;97116.59;5005942;28;20232;-71
2021/03/12 00:11:11;;;;;;;1.93;1.80;;;;;;;5.34;98.38;97125.78;5003864;28;20212;-72
2021/03/12 00:13:40;;;;;;;4.13;2.30;;;;;;;5.29;98.95;97138.53;5006336;28;20213;-71
2021/03/12 00:16:07;;;;;;;2.87;2.60;;;;;;;5.30;99.29;97130.53;5001665;28;20209;-72
2021/03/12 00:18:37;;;;;;;4.97;3.00;;;;;;;5.30;98.35;97121.81;5005407;28;20232;-71
2021/03/12 00:21:05;;;;;;;2.83;1.80;;;;;;;5.25;98.26;97116.19;5003380;28;20201;-71
2021/03/12 00:23:32;;;;;;;2.50;2.37;;;;;;;5.22;98.21;97110.25;5004476;28;20208;-71
2021/03/12 00:25:59;;;;;;;4.47;2.33;;;;;;;5.16;99.38;97103.00;5003982;28;20209;-72
2021/03/12 00:28:26;;;;;;;2.90;2.33;;;;;;;5.14;98.62;97102.31;5006455;28;20708;-71
2021/03/12 00:30:54;;;;;;;5.07;2.53;;;;;;;5.16;98.14;97107.41;5004174;28;20232;-71
2021/03/12 00:33:23;;;;;;;2.73;2.03;;;;;;;5.19;98.02;97114.97;5011011;28;20209;-71
2021/03/12 00:35:51;;;;;;;3.07;1.97;;;;;;;5.15;98.57;97111.00;5002550;28;20932;-71
2021/03/12 00:38:18;;;;;;;2.03;1.90;;;;;;;5.14;98.98;97097.06;5004896;28;20251;-72
2021/03/12 00:40:48;;;;;;;3.50;2.50;;;;;;;5.09;99.69;97099.28;5005492;28;20212;-72
2021/03/12 00:43:16;;;;;;;2.33;2.00;;;;;;;5.09;98.64;97091.41;5004470;28;20215;-72
2021/03/12 00:45:44;;;;;;;7.73;2.80;;;;;;;5.07;98.17;97103.88;5001074;28;20217;-71
2021/03/12 00:48:12;;;;;;;2.50;2.07;;;;;;;5.10;97.82;97092.25;5004528;28;20312;-72
2021/03/12 00:50:40;;;;;;;2.27;2.00;;;;;;;5.01;98.37;97102.69;5005039;28;20724;-72
2021/03/12 00:53:08;;;;;;;3.67;1.93;;;;;;;5.06;97.35;97107.47;5007701;28;20701;-72
2021/03/12 00:55:35;;;;;;;2.33;1.90;;;;;;;5.08;96.90;97095.03;5001364;28;20485;-72
2021/03/12 00:58:03;;;;;;;1.80;1.70;;;;;;;5.01;97.56;97091.34;5004627;28;20229;-71
2021/03/12 01:00:31;;;;;;;1.83;1.47;;;;;;;4.96;97.86;97085.72;5002028;28;20220;-72
2021/03/12 01:02:58;;;;;;;3.30;2.50;;;;;;;4.86;97.77;97083.19;5005645;28;20213;-71
2021/03/12 01:05:27;;;;;;;3.73;2.27;;;;;;;4.85;97.81;97097.28;5002476;28;20513;-72
2021/03/12 01:07:54;;;;;;;2.90;2.10;;;;;;;4.87;96.47;97088.28;5002145;28;20257;-71
2021/03/12 01:10:22;;;;;;;2.57;2.13;;;;;;;4.93;95.27;97090.31;5007792;28;20224;-71
2021/03/12 01:12:50;;;;;;;3.80;2.50;;;;;;;4.85;95.43;97090.25;5008815;28;20204;-72
2021/03/12 01:15:18;;;;;;;3.27;1.97;;;;;;;4.93;94.41;97086.88;5004699;28;20212;-72
2021/03/12 01:17:46;;;;;;;4.10;2.20;;;;;;;5.02;92.87;97100.88;5001253;28;20233;-72
2021/03/12 01:20:17;;;;;;;5.90;2.37;;;;;;;5.05;91.88;97101.41;5004331;28;20303;-72
2021/03/12 01:22:45;;;;;;;4.87;2.20;;;;;;;5.06;92.07;97121.44;5004553;28;20208;-72
2021/03/12 01:25:14;;;;;;;4.53;1.93;;;;;;;5.04;91.83;97115.53;5006818;28;20201;-72
2021/03/12 01:27:41;;;;;;;4.40;2.10;;;;;;;5.04;92.14;97114.69;5001545;28;20740;-72
2021/03/12 01:30:15;;;;;;;2.53;2.33;;;;;;;5.13;91.56;97129.56;5006571;28;20228;-72
2021/03/12 01:32:42;;;;;;;4.07;1.70;;;;;;;5.28;90.32;97255.94;5005967;28;20334;-72
2021/03/12 01:35:10;;;;;;;1.43;1.40;;;;;;;4.09;97.95;97301.97;5006494;28;20207;-72
2021/03/12 01:37:37;;;;;;;1.70;1.60;;;;;;;2.33;100.00;97279.72;5006167;28;20240;-73
2021/03/12 01:40:08;;;;;;;1.13;1.03;;;;;;;1.81;100.00;97280.47;5003353;28;20705;-72
2021/03/12 01:42:49;;;;;;;0.60;0.60;;;;;;;1.35;100.00;97273.78;5004196;28;20932;-73
2021/03/12 01:45:20;;;;;;;0.70;0.70;;;;;;;1.21;100.00;97249.63;5007054;28;20255;-73
2021/03/12 01:47:47;;;;;;;0.87;0.87;;;;;;;1.13;100.00;97250.25;5004243;28;20225;-73
2021/03/12 01:50:16;;;;;;;1.60;1.00;;;;;;;1.24;100.00;97274.66;5012788;28;20597;-73
2021/03/12 01:52:43;;;;;;;1.30;1.20;;;;;;;1.38;100.00;97260.47;5011983;28;20624;-73
2021/03/12 01:55:15;;;;;;;6.67;1.50;;;;;;;1.41;100.00;97261.06;5008989;28;20327;-73
2021/03/12 01:57:43;;;;;;;1.13;1.13;;;;;;;1.55;100.00;97236.47;5006758;28;20229;-73
2021/03/12 02:00:11;;;;;;;2.20;1.10;;;;;;;1.67;100.00;97245.03;5011283;28;20200;-73
2021/03/12 02:02:39;;;;;;;1.57;1.13;;;;;;;1.69;100.00;97255.38;5016122;28;20211;-73
2021/03/12 02:05:08;;;;;;;2.60;0.90;;;;;;;1.76;100.00;97237.44;5007045;28;20246;-73
2021/03/12 02:07:36;;;;;;;1.93;0.93;;;;;;;1.71;100.00;97217.75;5017358;28;20744;-73
2021/03/12 02:10:06;;;;;;;0.73;0.73;;;;;;;1.71;100.00;97238.63;5008016;28;20708;-73
2021/03/12 02:12:38;;;;;;;0.80;0.80;;;;;;;1.66;100.00;97232.94;5012613;28;20227;-73
2021/03/12 02:15:08;;;;;;;1.90;0.90;;;;;;;1.68;100.00;97230.22;5014551;28;20200;-73
2021/03/12 02:17:42;;;;;;;1.93;0.97;;;;;;;1.62;100.00;97234.16;5009612;28;20232;-73
2021/03/12 02:20:24;;;;;;;0.87;0.80;;;;;;;1.62;100.00;97239.38;5012274;28;20200;-73
2021/03/12 02:23:01;;;;;;;1.00;1.00;;;;;;;1.64;100.00;97237.47;5012483;28;20855;-73
2021/03/12 02:25:28;;;;;;;1.77;0.80;;;;;;;1.63;100.00;97248.06;5006620;28;20678;-73
2021/03/12 02:27:57;;;;;;;1.40;1.40;;;;;;;1.63;100.00;97255.88;5007821;28;20315;-72
2021/03/12 02:30:25;;;;;;;0.90;0.80;;;;;;;1.65;100.00;97265.25;5006378;28;20224;-73
2021/03/12 02:32:52;;;;;;;1.23;1.20;;;;;;;1.68;100.00;97259.75;5011799;28;20205;-73
2021/03/12 02:35:21;;;;;;;0.90;0.90;;;;;;;1.74;100.00;97271.50;5010636;28;20220;-73
2021/03/12 02:37:49;;;;;;;1.37;1.07;;;;;;;1.93;100.00;97270.81;5007150;28;20232;-73
2021/03/12 02:40:20;;;;;;;1.10;1.10;;;;;;;1.93;100.00;97276.03;5009859;28;20211;-73
2021/03/12 02:42:47;;;;;;;0.90;0.90;;;;;;;1.95;100.00;97281.16;5011964;28;20235;-72
2021/03/12 02:45:18;;;;;;;1.10;1.10;;;;;;;2.06;100.00;97283.69;5014940;28;20209;-72
2021/03/12 02:47:45;;;;;;;1.43;1.07;;;;;;;2.03;100.00;97282.16;5004862;28;20229;-72
2021/03/12 02:50:14;;;;;;;1.30;1.30;;;;;;;2.03;100.00;97284.75;5014326;28;20224;-71
2021/03/12 02:52:42;;;;;;;2.10;1.40;;;;;;;2.04;100.00;97293.44;5001656;28;20241;-72
2021/03/12 02:55:10;;;;;;;1.33;1.23;;;;;;;1.98;100.00;97300.00;5010516;28;20205;-72
2021/03/12 02:57:39;;;;;;;1.60;0.90;;;;;;;2.02;100.00;97292.75;5006377;28;20230;-72
2021/03/12 03:00:08;;;;;;;1.00;1.00;;;;;;;2.08;100.00;97291.38;5009072;28;20209;-71
2021/03/12 03:02:36;;;;;;;2.20;1.10;;;;;;;1.99;100.00;97293.81;5010443;28;20603;-72
2021/03/12 03:05:06;;;;;;;1.63;1.00;;;;;;;2.09;100.00;97296.50;5007956;28;20296;-72
2021/03/12 03:07:34;;;;;;;1.30;1.30;;;;;;;2.06;100.00;97319.44;5007819;28;20248;-72
2021/03/12 03:10:01;;;;;;;1.37;1.37;;;;;;;2.10;100.00;97320.88;5008143;28;20307;-72
2021/03/12 03:12:29;;;;;;;2.10;1.83;;;;;;;2.12;100.00;97313.72;5012351;28;20204;-72
2021/03/12 03:14:58;;;;;;;1.43;1.43;;;;;;;2.14;100.00;97314.44;5004366;28;20244;-72
2021/03/12 03:17:25;;;;;;;1.80;1.70;;;;;;;2.18;100.00;97302.75;5008176;28;20220;-72
2021/03/12 03:19:53;;;;;;;2.73;1.33;;;;;;;2.23;100.00;97321.50;5007355;28;20283;-72
2021/03/12 03:22:20;;;;;;;1.50;1.40;;;;;;;2.26;100.00;97305.56;5006085;28;20204;-72
2021/03/12 03:24:48;;;;;;;1.60;1.10;;;;;;;2.27;100.00;97311.59;5007940;28;20216;-72
2021/03/12 03:27:16;;;;;;;1.40;1.30;;;;;;;2.25;100.00;97316.97;5007876;28;20585;-72
2021/03/12 03:29:43;;;;;;;1.27;1.27;;;;;;;2.29;100.00;97320.97;5007671;28;20625;-72
2021/03/12 03:32:11;;;;;;;1.93;1.83;;;;;;;2.31;100.00;97311.22;5007575;28;20721;-72
2021/03/12 03:34:39;;;;;;;2.07;1.87;;;;;;;2.36;99.97;97310.84;5002010;28;20209;-72
2021/03/12 03:37:07;;;;;;;7.23;1.73;;;;;;;2.38;99.22;97318.53;5009823;28;20245;-71
2021/03/12 03:39:34;;;;;;;2.00;1.30;;;;;;;2.36;98.64;97330.94;5012727;28;20215;-71
2021/03/12 03:42:04;;;;;;;3.17;1.60;;;;;;;2.31;99.33;97324.28;5008236;28;20228;-71
2021/03/12 03:44:34;;;;;;;2.30;1.40;;;;;;;2.40;98.42;97334.94;5006058;28;20214;-72
2021/03/12 03:47:03;;;;;;;1.93;1.60;;;;;;;2.36;98.51;97334.38;5006498;28;20684;-71
2021/03/12 03:49:35;;;;;;;3.97;2.00;;;;;;;2.39;97.88;97331.50;5004480;28;20300;-72
2021/03/12 03:52:02;;;;;;;1.50;1.40;;;;;;;2.44;98.36;97346.78;5010250;28;20417;-71
2021/03/12 03:54:31;;;;;;;2.03;1.67;;;;;;;2.51;97.68;97342.72;5010886;28;20204;-72
2021/03/12 03:56:58;;;;;;;2.07;1.83;;;;;;;2.51;97.81;97334.88;4998364;28;20212;-72
2021/03/12 03:59:26;;;;;;;2.27;2.07;;;;;;;2.57;97.67;97339.59;5004818;28;20259;-72
2021/03/12 04:01:54;;;;;;;1.60;1.50;;;;;;;2.52;98.27;97339.16;5001009;28;20205;-70
2021/03/12 04:04:21;;;;;;;2.27;2.00;;;;;;;2.50;98.53;97343.69;5004412;28;20211;-71
2021/03/12 04:06:48;;;;;;;3.93;2.03;;;;;;;2.58;98.04;97341.25;5001066;28;20208;-72
2021/03/12 04:09:16;;;;;;;1.70;1.60;;;;;;;2.68;96.37;97341.31;5001957;28;20208;-71
2021/03/12 04:11:44;;;;;;;1.93;1.70;;;;;;;2.63;97.93;97351.31;4991671;28;20244;-71
2021/03/12 04:14:12;;;;;;;1.97;1.87;;;;;;;2.67;98.05;97367.59;5000428;28;20676;-68
2021/03/12 04:16:39;;;;;;;3.47;2.10;;;;;;;2.86;98.12;97346.75;4999208;28;20220;-69
2021/03/12 04:19:08;;;;;;;3.23;1.90;;;;;;;3.15;99.41;97348.63;5001283;28;20235;-69
2021/03/12 04:21:35;;;;;;;2.77;2.10;;;;;;;3.13;94.59;97342.72;5006441;28;20205;-72
2021/03/12 04:24:03;;;;;;;2.97;2.53;;;;;;;2.87;94.97;97339.72;5003321;28;20211;-71
2021/03/12 04:26:30;;;;;;;2.07;1.87;;;;;;;2.73;96.47;97370.53;5008916;28;20231;-72
2021/03/12 04:28:59;;;;;;;2.30;2.20;;;;;;;2.63;95.97;97353.94;5004179;28;20612;-71
2021/03/12 04:31:26;;;;;;;2.67;2.10;;;;;;;2.73;94.95;97351.38;5009212;28;20224;-67
2021/03/12 04:33:53;;;;;;;2.80;2.13;;;;;;;2.69;95.42;97344.75;5010234;28;20287;-71
2021/03/12 04:36:21;;;;;;;2.90;1.97;;;;;;;2.73;93.80;97364.44;5006030;28;20231;-70
2021/03/12 04:38:48;;;;;;;2.77;1.67;;;;;;;2.68;94.34;97369.25;5010513;28;20478;-71
2021/03/12 04:41:16;;;;;;;1.83;1.73;;;;;;;2.59;94.76;97369.06;5006007;28;20356;-70
2021/03/12 04:43:43;;;;;;;4.00;2.40;;;;;;;2.64;93.55;97388.78;5004565;28;20205;-70
2021/03/12 04:46:12;;;;;;;1.50;1.50;;;;;;;2.65;93.57;97396.50;5006776;28;20649;-70
2021/03/12 04:48:41;;;;;;;2.43;2.17;;;;;;;2.68;92.59;97395.41;5006810;28;20220;-70
2021/03/12 04:51:10;;;;;;;2.27;1.63;;;;;;;2.60;92.92;97416.97;5005477;28;20648;-70
2021/03/12 04:53:38;;;;;;;2.87;1.90;;;;;;;2.65;92.16;97413.97;5006720;28;20209;-71
2021/03/12 04:56:06;;;;;;;2.00;1.90;;;;;;;2.67;91.86;97418.16;5003671;28;20605;-70
2021/03/12 04:58:36;;;;;;;4.60;2.20;;;;;;;2.68;91.23;97406.72;5009111;28;20228;-70
2021/03/12 05:01:06;;;;;;;3.60;1.83;;;;;;;2.60;92.00;97419.59;5008996;28;20743;-69
2021/03/12 05:03:34;;;;;;;2.73;2.00;;;;;;;2.54;92.67;97413.09;5002257;28;20594;-70
2021/03/12 05:06:01;;;;;;;4.53;2.53;;;;;;;2.58;91.17;97429.34;5006983;28;20212;-70
2021/03/12 05:08:28;;;;;;;3.40;2.90;;;;;;;2.62;90.34;97425.53;5008091;28;20228;-71
2021/03/12 05:11:00;;;;;;;2.70;1.70;;;;;;;2.62;90.47;97432.56;5002161;28;20221;-69
2021/03/12 05:13:28;;;;;;;3.80;2.20;;;;;;;2.54;91.20;97435.78;5006863;28;20258;-70
2021/03/12 05:15:55;;;;;;;2.13;1.93;;;;;;;2.52;90.56;97437.72;5005058;28;20240;-70
2021/03/12 05:18:23;;;;;;;3.13;1.70;;;;;;;2.59;89.81;97442.31;5006831;28;20231;-70
2021/03/12 05:20:52;;;;;;;5.47;2.87;;;;;;;2.63;89.23;97445.50;4996879;28;20224;-70
2021/03/12 05:23:20;;;;;;;1.70;1.47;;;;;;;2.51;90.63;97455.22;5005570;28;20208;-70
2021/03/12 05:25:48;;;;;;;3.33;1.70;;;;;;;2.49;91.99;97459.75;5002590;28;20201;-71
2021/03/12 05:28:15;;;;;;;1.33;1.23;;;;;;;2.41;91.26;97457.75;5003238;28;20543;-70
2021/03/12 05:30:42;;;;;;;2.43;2.20;;;;;;;2.45;90.94;97463.53;5007900;28;20324;-71
2021/03/12 05:33:10;;;;;;;2.53;1.90;;;;;;;2.36;92.33;97462.53;5003505;28;20212;-73
2021/03/12 05:35:37;;;;;;;4.97;1.83;;;;;;;2.34;92.27;97466.19;5007966;28;20205;-72
2021/03/12 05:38:05;;;;;;;2.47;2.20;;;;;;;2.28;92.85;97481.44;5010794;28;20248;-73
2021/03/12 05:40:32;;;;;;;1.77;1.50;;;;;;;2.40;91.57;97489.22;5007180;28;20206;-72
2021/03/12 05:42:59;;;;;;;2.30;1.93;;;;;;;2.40;91.45;97489.22;4999159;28;20384;-71
2021/03/12 05:45:47;;;;;;;2.93;2.00;;;;;;;2.38;91.46;97493.75;4999677;28;20311;-72
2021/03/12 05:48:17;;;;;;;3.40;2.10;;;;;;;2.46;91.24;97507.03;5004558;28;20224;-72
2021/03/12 05:50:44;;;;;;;1.97;1.87;;;;;;;2.51;91.17;97509.28;5006414;28;20244;-71
2021/03/12 05:53:12;;;;;;;3.00;1.53;;;;;;;2.46;91.56;97515.72;5004042;28;20219;-73
2021/03/12 05:55:40;;;;;;;1.70;1.60;;;;;;;2.55;89.97;97529.00;4998888;28;20210;-73
2021/03/12 05:58:07;;;;;;;5.17;1.37;;;;;;;2.54;90.12;97522.13;5003029;28;20240;-73
2021/03/12 06:00:34;;;;;;;1.73;1.63;;;;;;;2.67;89.27;97528.03;5008190;28;20197;-73
2021/03/12 06:03:01;;;;;;;2.33;1.63;;;;;;;2.73;87.01;97543.22;5001629;28;20213;-72
2021/03/12 06:05:28;;;;;;;5.83;4.47;;;;;;;2.70;87.65;97540.88;5008604;28;20637;-73
2021/03/12 06:07:56;;;;;;;3.23;1.77;;;;;;;2.70;86.26;97546.09;5005966;28;20220;-73
2021/03/12 06:10:24;;;;;;;2.00;1.83;;;;;;;2.79;85.63;97554.97;5005252;28;20224;-73
2021/03/12 06:12:52;;;;;;;5.13;2.17;;;;;;;2.71;85.34;97539.91;5005358;28;20205;-73
2021/03/12 06:15:19;;;;;;;1.93;1.73;;;;;;;2.67;86.26;97548.97;5009368;28;21236;-73
2021/03/12 06:17:47;;;;;;;2.23;2.00;;;;;;;2.62;86.34;97547.66;5001277;28;20538;-73
2021/03/12 06:20:16;;;;;;;3.17;2.03;;;;;;;2.56;88.35;97562.06;5004241;28;20205;-73
2021/03/12 06:22:50;;;;;;;3.07;1.83;;;;;;;2.58;89.14;97563.63;5002487;28;20211;-73
2021/03/12 06:25:18;;;;;;;1.80;1.70;;;;;;;2.64;90.88;97570.13;5005697;28;20212;-73
2021/03/12 06:27:47;;;;;;;3.50;2.00;;;;;;;2.71;89.22;97573.06;5001700;28;20322;-72
2021/03/12 06:30:15;;;;;;;2.10;1.90;;;;;;;2.83;89.17;97572.06;5003000;28;20648;-73
2021/03/12 06:32:44;;;;;;;2.50;2.23;;;;;;;2.82;89.88;97580.06;5005995;28;20209;-73
2021/03/12 06:35:14;;;;;;;2.30;2.10;;;;;;;2.98;88.08;97587.50;4999279;28;20404;-67
2021/03/12 06:37:45;;;;;;;3.67;1.97;;;;;;;3.16;88.41;97600.84;5002876;28;20229;-68
2021/03/12 06:40:22;;;;;;;3.43;2.20;;;;;;;3.12;89.61;97594.22;5006028;28;20205;-68
2021/03/12 06:43:05;;;;;;;2.80;2.20;;;;;;;3.23;88.15;97593.34;5002424;28;20603;-67
2021/03/12 06:45:33;;;;;;;3.13;2.27;;;;;;;3.28;88.56;97599.00;5007382;28;20201;-71
2021/03/12 06:48:16;;;;;;;3.83;2.73;;;;;;;3.30;88.93;97599.72;5003678;28;20229;-68
2021/03/12 06:50:44;;;;;;;4.17;2.00;;;;;;;3.37;89.90;97600.84;5003472;28;20232;-70
2021/03/12 06:53:33;;;;;;;4.90;2.70;;;;;;;3.37;91.08;97608.72;5015115;28;20517;-71
2021/03/12 06:56:02;;;;;;;4.83;2.00;;;;;;;3.40;88.05;97608.47;4999476;28;20209;-69
2021/03/12 06:58:30;;;;;;;3.27;2.10;;;;;;;3.55;89.02;97622.06;5003181;28;20225;-70
2021/03/12 07:00:57;;;;;;;7.13;2.83;;;;;;;3.57;89.27;97622.78;4998473;28;20468;-72
2021/03/12 07:03:30;;;;;;;2.47;2.20;;;;;;;3.51;87.44;97622.44;5006338;28;20264;-71
2021/03/12 07:06:12;;;;;;;2.70;2.50;;;;;;;3.57;87.98;97640.25;5001533;28;20731;-71
2021/03/12 07:08:40;;;;;;;4.93;2.03;;;;;;;3.65;87.93;97639.63;5004041;28;20248;-71
2021/03/12 07:11:19;;;;;;;5.30;3.33;;;;;;;3.67;86.32;97637.72;5009507;28;20225;-70
2021/03/12 07:13:47;;;;;;;2.17;2.00;;;;;;;3.83;87.25;97637.25;5009664;28;20204;-72
2021/03/12 07:16:14;;;;;;;4.70;1.80;;;;;;;3.71;84.89;97633.88;5003147;28;20213;-73
2021/03/12 07:18:42;;;;;;;2.23;2.03;;;;;;;3.82;84.59;97636.44;5003371;28;20235;-71
2021/03/12 07:21:11;;;;;;;3.83;2.43;;;;;;;3.73;85.17;97637.19;5005889;28;20209;-72
2021/03/12 07:23:41;;;;;;;2.03;1.93;;;;;;;3.74;83.36;97650.19;5002244;28;20205;-72
2021/03/12 07:26:10;;;;;;;2.87;1.73;;;;;;;3.78;82.95;97649.91;5005753;28;20209;-72
2021/03/12 07:28:37;;;;;;;3.40;1.60;;;;;;;3.69;82.70;97665.47;5004040;28;20225;-72
2021/03/12 07:31:06;;;;;;;1.63;1.50;;;;;;;3.68;83.25;97657.72;5005211;28;20221;-72
2021/03/12 07:33:35;;;;;;;2.50;1.70;;;;;;;3.68;83.32;97658.56;5009636;28;20629;-72
2021/03/12 07:36:04;;;;;;;4.70;2.00;;;;;;;3.69;82.41;97675.09;5007853;28;20601;-72
2021/03/12 07:38:35;;;;;;;1.93;1.63;;;;;;;3.67;81.40;97672.63;5007659;28;20225;-71
2021/03/12 07:41:03;;;;;;;2.70;1.70;;;;;;;3.72;79.93;97685.31;5008777;28;20326;-72
2021/03/12 07:43:33;;;;;;;3.80;1.90;;;;;;;3.71;81.30;97679.28;5013551;28;20211;-72
2021/03/12 07:46:01;;;;;;;3.73;2.00;;;;;;;3.81;82.20;97683.72;5004374;28;20236;-69
2021/03/12 07:48:30;;;;;;;2.87;2.30;;;;;;;3.65;82.10;97682.41;5008133;28;20248;-70
2021/03/12 07:51:05;;;;;;;4.50;3.27;;;;;;;3.65;84.47;97686.81;5008747;28;20225;-70
2021/03/12 07:53:50;;;;;;;4.70;2.33;;;;;;;3.57;84.12;97676.94;5010584;28;20204;-71
2021/03/12 07:56:18;;;;;;;5.47;1.90;;;;;;;3.76;81.34;97689.34;5006512;28;20809;-70
2021/03/12 07:58:57;;;;;;;2.67;1.70;;;;;;;3.78;81.66;97692.69;4996042;28;20237;-72
2021/03/12 08:01:24;;;;;;;3.87;1.57;;;;;;;4.00;80.04;97680.38;4999092;28;20212;-71
2021/03/12 08:03:53;;;;;;;6.63;3.37;;;;;;;4.18;79.40;97685.88;4999119;28;20212;-71
2021/03/12 08:06:34;;;;;;;2.30;1.63;;;;;;;4.28;77.85;97691.97;5001666;28;20204;-71
2021/03/12 08:09:17;;;;;;;2.10;1.57;;;;;;;4.30;78.17;97695.28;5009226;28;20236;-70
2021/03/12 08:11:52;;;;;;;4.23;3.00;;;;;;;4.23;77.88;97694.16;4998222;28;20240;-70
2021/03/12 08:14:20;;;;;;;4.17;2.40;;;;;;;4.45;76.66;97693.16;5007053;28;20591;-69
2021/03/12 08:17:16;;;;;;;3.67;2.37;;;;;;;4.43;77.75;97695.06;5007885;28;20677;-71
2021/03/12 08:19:49;;;;;;;4.30;3.40;;;;;;;4.60;77.46;97703.31;5010896;28;20219;-71
2021/03/12 08:22:44;;;;;;;6.13;3.37;;;;;;;4.88;75.88;97698.25;5004821;28;20204;-71
2021/03/12 08:25:13;;;;;;;2.97;1.93;;;;;;;5.28;72.27;97688.63;5007330;28;20523;-71
2021/03/12 08:27:46;;;;;;;2.40;1.90;;;;;;;5.36;72.15;97692.22;5009624;28;20229;-71
2021/03/12 08:30:43;;;;;;;4.00;1.93;;;;;;;5.16;69.24;97688.78;5007259;28;20201;-71
2021/03/12 08:33:26;;;;;;;2.03;1.60;;;;;;;5.13;70.73;97702.19;5004831;28;20264;-71
2021/03/12 08:35:56;;;;;;;3.00;1.47;;;;;;;5.23;70.86;97702.16;5005752;28;20240;-73
2021/03/12 08:38:45;;;;;;;4.43;1.67;;;;;;;5.30;67.29;97692.78;5009674;28;20244;-73
2021/03/12 08:41:16;;;;;;;3.17;1.63;;;;;;;5.24;68.70;97688.06;5007722;28;20578;-71
2021/03/12 08:43:49;;;;;;;2.73;1.47;;;;;;;5.46;69.15;97691.41;5011618;28;20294;-70
2021/03/12 08:46:18;;;;;;;1.60;1.20;;;;;;;5.48;67.03;97698.16;5009749;28;20201;-71
2021/03/12 08:48:48;;;;;;;3.60;2.33;;;;;;;5.54;66.63;97703.84;5003582;28;20526;-71
2021/03/12 08:51:18;;;;;;;2.17;1.57;;;;;;;5.55;66.82;97702.88;5003653;28;20235;-70
2021/03/12 08:53:54;;;;;;;2.63;1.80;;;;;;;5.46;65.86;97704.53;5005963;28;20209;-70
2021/03/12 08:56:27;;;;;;;3.00;1.67;;;;;;;5.52;66.22;97703.16;5000095;28;20201;-71
2021/03/12 08:58:54;;;;;;;2.87;2.13;;;;;;;5.51;65.88;97702.31;4999294;28;20598;-71
2021/03/12 09:01:24;;;;;;;3.07;1.70;;;;;;;5.69;64.71;97697.19;4999947;28;20220;-72
2021/03/12 09:03:53;;;;;;;2.47;1.93;;;;;;;6.00;64.13;97696.16;4996909;28;20428;-72
2021/03/12 09:06:23;;;;;;;2.67;1.90;;;;;;;5.92;61.85;97700.31;5001062;28;20263;-72
2021/03/12 09:09:05;;;;;;;2.37;1.30;;;;;;;5.78;63.35;97698.97;5000863;28;20615;-72
2021/03/12 09:11:32;;;;;;;2.70;1.80;;;;;;;5.86;62.65;97698.28;5003385;28;20456;-71
2021/03/12 09:14:00;;;;;;;4.03;2.50;;;;;;;5.76;64.08;97698.28;5001718;28;20212;-72
2021/03/12 09:16:28;;;;;;;2.10;1.77;;;;;;;5.80;64.15;97704.09;5005511;28;20316;-72
2021/03/12 09:19:00;;;;;;;6.13;3.37;;;;;;;5.87;65.45;97701.72;5003976;28;20628;-71
2021/03/12 09:21:29;;;;;;;6.13;3.37;;;;;;;5.90;66.37;97706.72;5000987;28;20645;-72
2021/03/12 09:23:57;;;;;;;6.10;2.73;;;;;;;5.73;64.92;97698.56;5002982;28;20212;-71
2021/03/12 09:26:26;;;;;;;4.80;2.20;;;;;;;5.68;65.78;97707.81;5001101;28;20210;-72
2021/03/12 09:28:54;;;;;;;5.57;2.17;;;;;;;5.57;65.93;97707.00;5004862;28;20227;-72
2021/03/12 09:31:29;;;;;;;2.63;1.60;;;;;;;5.41;66.46;97704.13;5007317;28;20743;-72
2021/03/12 09:33:57;;;;;;;4.80;3.20;;;;;;;5.50;66.74;97693.63;5005767;28;20208;-72
2021/03/12 09:36:31;;;;;;;4.03;1.43;;;;;;;5.25;67.70;97694.16;5006808;28;20219;-72
2021/03/12 09:39:10;;;;;;;3.70;2.20;;;;;;;5.22;67.39;97688.22;5002371;28;20229;-72
2021/03/12 09:41:39;;;;;;;1.73;1.63;;;;;;;5.39;65.74;97688.47;5004505;28;20231;-73
2021/03/12 09:44:08;;;;;;;4.50;2.60;;;;;;;5.82;65.86;97680.28;5004515;28;20217;-72
2021/03/12 09:46:37;;;;;;;1.77;1.33;;;;;;;6.03;65.36;97691.47;5005202;28;20655;-72
2021/03/12 09:49:14;;;;;;;3.77;2.00;;;;;;;6.25;64.36;97686.84;5007500;28;20274;-72
2021/03/12 09:51:45;;;;;;;1.50;1.40;;;;;;;6.26;64.68;97680.63;5006208;28;20672;-72
2021/03/12 09:54:13;;;;;;;2.13;1.80;;;;;;;6.49;64.94;97678.44;5007245;28;20205;-72
2021/03/12 09:56:41;;;;;;;3.23;1.93;;;;;;;6.68;65.37;97681.13;5003660;28;20221;-73
2021/03/12 09:59:08;;;;;;;3.60;2.43;;;;;;;6.53;64.50;97678.97;5007011;28;20205;-72
2021/03/12 10:01:36;;;;;;;2.03;1.87;;;;;;;6.23;64.85;97665.94;5006818;28;20300;-73
2021/03/12 10:04:22;;;;;;;4.23;1.73;;;;;;;6.48;62.10;97683.84;5010649;28;20209;-72
2021/03/12 10:06:58;;;;;;;3.77;2.20;;;;;;;6.63;62.12;97678.91;4992980;28;20678;-72
2021/03/12 10:09:25;;;;;;;3.00;1.53;;;;;;;6.76;60.20;97675.94;4999757;28;20231;-71
2021/03/12 10:11:53;;;;;;;4.17;2.37;;;;;;;6.99;60.76;97670.25;5003121;28;20225;-72
2021/03/12 10:14:34;;;;;;;2.70;1.70;;;;;;;7.04;60.37;97668.81;5001800;28;20307;-70
2021/03/12 10:17:08;;;;;;;3.43;2.23;;;;;;;7.05;56.12;97664.41;5002824;28;20300;-70
2021/03/12 10:19:47;;;;;;;5.50;3.80;;;;;;;6.61;56.46;97667.72;5004492;28;20584;-71
2021/03/12 10:22:18;;;;;;;3.20;2.10;;;;;;;6.80;57.72;97670.22;5009565;28;20200;-70
2021/03/12 10:24:53;;;;;;;2.20;1.40;;;;;;;6.79;57.20;97657.22;5010446;28;20754;-70
2021/03/12 10:27:22;;;;;;;1.97;1.47;;;;;;;6.84;57.32;97664.69;5009534;28;20283;-68
2021/03/12 10:29:51;;;;;;;2.33;1.50;;;;;;;6.58;56.99;97666.19;5010761;28;20479;-70
2021/03/12 10:32:20;;;;;;;4.17;1.80;;;;;;;6.77;57.56;97653.91;5007501;28;20828;-71
2021/03/12 10:34:50;;;;;;;1.00;1.00;;;;;;;6.91;58.24;97660.47;5008053;28;20711;-71
2021/03/12 10:37:20;;;;;;;3.37;1.50;;;;;;;6.66;57.28;97650.50;5008423;28;20241;-72
2021/03/12 10:39:48;;;;;;;4.20;1.93;;;;;;;7.02;57.87;97647.06;5006800;28;20208;-71
2021/03/12 10:42:16;;;;;;;2.83;1.63;;;;;;;6.71;56.64;97652.69;5010297;28;20204;-71
2021/03/12 10:44:56;;;;;;;2.47;1.40;;;;;;;6.72;56.60;97635.09;5007193;28;20361;-71
2021/03/12 10:47:23;;;;;;;2.00;1.50;;;;;;;6.72;58.04;97632.44;5010289;28;20242;-71
2021/03/12 10:49:51;;;;;;;4.60;2.50;;;;;;;6.75;58.16;97640.06;5005786;28;20217;-71
2021/03/12 10:52:28;;;;;;;5.13;2.50;;;;;;;6.86;57.44;97629.28;5007819;28;20228;-71
2021/03/12 10:54:56;;;;;;;6.50;3.00;;;;;;;7.42;58.24;97629.16;5010934;28;20236;-71
2021/03/12 10:57:38;;;;;;;6.57;3.10;;;;;;;7.45;58.00;97625.34;5009955;28;20228;-70
2021/03/12 11:00:09;;;;;;;2.67;1.73;;;;;;;7.32;57.62;97617.84;5005719;28;20210;-71
2021/03/12 11:02:37;;;;;;;2.70;1.60;;;;;;;7.30;57.24;97630.34;4983296;28;20339;-71
2021/03/12 11:05:06;;;;;;;5.43;3.10;;;;;;;7.60;57.41;97625.63;4979917;28;20339;-71
2021/03/12 11:07:34;;;;;;;6.87;3.87;;;;;;;7.73;57.71;97617.31;4998846;28;20622;-71
2021/03/12 11:10:01;;;;;;;4.17;2.73;;;;;;;8.09;56.76;97614.56;4996350;28;20209;-72
2021/03/12 11:12:36;;;;;;;3.43;1.30;;;;;;;8.01;54.81;97609.25;5004979;28;20233;-71
2021/03/12 11:15:04;;;;;;;1.00;1.00;;;;;;;7.88;55.51;97607.03;4999468;28;20208;-71
2021/03/12 11:17:31;;;;;;;6.03;2.40;;;;;;;7.67;55.68;97616.13;4999023;28;20240;-70
2021/03/12 11:20:08;;;;;;;3.87;2.47;;;;;;;7.34;56.43;97600.06;4998861;28;20217;-72
2021/03/12 11:22:36;;;;;;;2.70;1.83;;;;;;;6.98;56.82;97594.81;4995745;28;20224;-71
2021/03/12 11:25:06;;;;;;;4.50;1.97;;;;;;;7.03;57.73;97584.69;5004620;28;20209;-71
2021/03/12 11:27:33;;;;;;;1.77;1.30;;;;;;;6.95;57.95;97588.88;5007213;28;20231;-72
2021/03/12 11:30:01;;;;;;;6.10;3.63;;;;;;;6.94;58.27;97578.50;5008393;28;20201;-70
2021/03/12 11:32:28;;;;;;;2.80;1.83;;;;;;;7.12;57.23;97572.38;4998148;28;20232;-70
2021/03/12 11:34:55;;;;;;;4.77;3.40;;;;;;;7.20;58.37;97570.66;4998328;28;20574;-71
2021/03/12 11:37:22;;;;;;;3.83;2.40;;;;;;;7.60;57.71;97573.72;5002205;28;20433;-71
2021/03/12 11:39:50;;;;;;;1.60;1.40;;;;;;;7.84;55.59;97566.94;4999994;28;20388;-72
2021/03/12 11:42:17;;;;;;;2.53;1.50;;;;;;;8.43;55.32;97574.09;4999894;28;20201;-69
2021/03/12 11:44:44;;;;;;;1.83;1.17;;;;;;;8.03;54.85;97555.31;5001851;28;20209;-72
2021/03/12 11:47:12;;;;;;;1.57;1.20;;;;;;;7.77;54.81;97552.72;5001784;28;20256;-70
2021/03/12 11:49:44;;;;;;;3.30;1.50;;;;;;;7.69;54.28;97556.13;5008995;28;20215;-70
2021/03/12 11:52:11;;;;;;;2.03;1.27;;;;;;;7.95;55.06;97550.84;5009616;28;20231;-71
2021/03/12 11:54:38;;;;;;;1.87;0.97;;;;;;;8.09;54.43;97552.03;5002424;28;20604;-71